Capt. Ted — WDD6210 — position and weather

sailwx.info

Track history (hours):
 
Tides and Currents Weather Stations Pressure Air Temp Water Temp Dewpoint Dewpoint Depression Visibility Wind Speed Wind Dir Waves Ship Positions

Capt. Ted

Owner: Salisbury Towing Corporation, Havre de Grace, MD. More information available from US FCC via Universal Licensing System and Coast Guard Vessel Documentation Center.

Last reported at 2015-Sep-02 14:26 UTC. Time now 2015-Sep-02 14:54 UTC.
Position N 38°05' W 076°29'.

Length 32 m; draft 2.8 m.

Type: Tug. MMSI: 367169710.

Date/timePositionNaut miles runAvg speedWind from/ knotsBaromVisibWave heightAir tempDewpointWater temp
2015-Sep-02 14:26N 38°05' W 076°29'6 6.6
2015-Sep-02 13:30N 38°01' W 076°23'12 6.3
2015-Sep-02 11:33N 37°53' W 076°11'17 5.5
2015-Sep-02 08:31N 37°48' W 075°51'7 6.5
2015-Sep-02 07:27N 37°54' W 075°47'4 4.7
2015-Sep-02 06:33N 37°57' W 075°44'4 3.7
2015-Sep-02 05:33N 37°58' W 075°39'3 2.6
2015-Sep-02 04:18N 38°01' W 075°39'3 0.9
2015-Sep-02 01:28N 38°04' W 075°37'0 0.0
2015-Aug-31 05:33N 38°04' W 075°37'0 0.0
2015-Aug-31 04:33N 38°04' W 075°37'0 0.0
2015-Aug-31 03:33N 38°04' W 075°37'0 0.0
2015-Aug-31 02:33N 38°04' W 075°37'33 0.7
2015-Aug-29 05:33N 37°59' W 076°18'7 7.1
2015-Aug-29 04:33N 38°03' W 076°26'8 7.0
2015-Aug-29 03:28N 38°08' W 076°33'44 2.8
2015-Aug-28 11:29N 38°39' W 077°13'3 0.9
2015-Aug-28 08:30N 38°36' W 077°13'3 2.9
2015-Aug-28 07:33N 38°34' W 077°14'42 5.7
2015-Aug-28 00:09N 38°07' W 076°33'4 7.1
2015-Aug-27 23:33N 38°04' W 076°28'7 7.1
2015-Aug-27 22:33N 37°60' W 076°21'  
2015-Aug-25 12:15N 37°60' W 075°38'2 3.5
2015-Aug-25 11:33N 38°02' W 075°39'  
Track history (hours):
 
Tides and Currents Weather Stations Pressure Air Temp Water Temp Dewpoint Dewpoint Depression Visibility Wind Speed Wind Dir Waves Ship Positions

Capt. Ted

Owner: Salisbury Towing Corporation, Havre de Grace, MD. More information available from US FCC via Universal Licensing System and Coast Guard Vessel Documentation Center.

Last reported at 2015-Sep-02 14:26 UTC. Time now 2015-Sep-02 14:54 UTC.
Position N 38°05' W 076°29'.

Length 32 m; draft 2.8 m.

Type: Tug. MMSI: 367169710.

Date/timePositionNaut miles runAvg speedWind from/ knotsBaromVisibWave heightAir tempDewpointWater temp
2015-Sep-02 14:26N 38°05' W 076°29'6 6.6
2015-Sep-02 13:30N 38°01' W 076°23'12 6.3
2015-Sep-02 11:33N 37°53' W 076°11'17 5.5
2015-Sep-02 08:31N 37°48' W 075°51'7 6.5
2015-Sep-02 07:27N 37°54' W 075°47'4 4.7
2015-Sep-02 06:33N 37°57' W 075°44'4 3.7
2015-Sep-02 05:33N 37°58' W 075°39'3 2.6
2015-Sep-02 04:18N 38°01' W 075°39'3 0.9
2015-Sep-02 01:28N 38°04' W 075°37'0 0.0
2015-Aug-31 05:33N 38°04' W 075°37'0 0.0
2015-Aug-31 04:33N 38°04' W 075°37'0 0.0
2015-Aug-31 03:33N 38°04' W 075°37'0 0.0
2015-Aug-31 02:33N 38°04' W 075°37'33 0.7
2015-Aug-29 05:33N 37°59' W 076°18'7 7.1
2015-Aug-29 04:33N 38°03' W 076°26'8 7.0
2015-Aug-29 03:28N 38°08' W 076°33'44 2.8
2015-Aug-28 11:29N 38°39' W 077°13'3 0.9
2015-Aug-28 08:30N 38°36' W 077°13'3 2.9
2015-Aug-28 07:33N 38°34' W 077°14'42 5.7
2015-Aug-28 00:09N 38°07' W 076°33'4 7.1
2015-Aug-27 23:33N 38°04' W 076°28'7 7.1
2015-Aug-27 22:33N 37°60' W 076°21'  
2015-Aug-25 12:15N 37°60' W 075°38'2 3.5
2015-Aug-25 11:33N 38°02' W 075°39'  

Dump ship's entire track history